Phetchaburi, Thailand
Current Conditions -  °F | °C
As of 1:00 PM on Saturday 25 Oct 2014 (Local Time) from VTBS Reporting Station
Broken Clouds Broken Clouds  
Wind Chill: 90°   Ceiling: 30000
Heat Index: 96°   Visibility: 6mi
Dew Point: 72°   Wind: 8mph
Humidity: 55%   Direction: 60°ENE
Pressure: 29.85"   Gusts: NA
Location:  13.11°N, 99.95°E
Report Text: VTBS 250600Z 06007KT 350V120 9999 FEW018CB SCT025 BKN300 32/22 Q1011 NOSIG
Loading
Personal Weather Stations






























Interactive Weather Map
Tropical Storm Tracking
New forecast layout! Learn more

10-Day Weather Forecast

Advertisements
Track Severe Weather on mobile